sensor_id;sensor_type;location;lat;lon;timestamp;P1;durP1;ratioP1;P2;durP2;ratioP2
56321;SDS011;42227;6.376;-10.782;2024-03-02T00:02:26;87.57;;;29.48;;
56321;SDS011;42227;6.376;-10.782;2024-03-02T00:04:55;89.43;;;31.25;;
56321;SDS011;42227;6.376;-10.782;2024-03-02T00:07:23;106.82;;;36.83;;
56321;SDS011;42227;6.376;-10.782;2024-03-02T00:09:53;96.25;;;35.67;;
56321;SDS011;42227;6.376;-10.782;2024-03-02T00:12:22;97.38;;;39.33;;
56321;SDS011;42227;6.376;-10.782;2024-03-02T00:14:50;119.95;;;56.35;;
56321;SDS011;42227;6.376;-10.782;2024-03-02T00:17:21;162.50;;;70.35;;
56321;SDS011;42227;6.376;-10.782;2024-03-02T00:19:53;125.88;;;62.55;;
56321;SDS011;42227;6.376;-10.782;2024-03-02T00:22:21;152.20;;;67.63;;
56321;SDS011;42227;6.376;-10.782;2024-03-02T00:24:49;178.50;;;86.88;;
56321;SDS011;42227;6.376;-10.782;2024-03-02T00:27:18;191.75;;;98.68;;
56321;SDS011;42227;6.376;-10.782;2024-03-02T00:29:48;233.00;;;105.93;;
56321;SDS011;42227;6.376;-10.782;2024-03-02T00:32:16;204.80;;;97.20;;
56321;SDS011;42227;6.376;-10.782;2024-03-02T00:34:45;212.68;;;101.40;;
56321;SDS011;42227;6.376;-10.782;2024-03-02T00:37:13;158.93;;;76.75;;
56321;SDS011;42227;6.376;-10.782;2024-03-02T00:39:42;155.48;;;65.88;;
56321;SDS011;42227;6.376;-10.782;2024-03-02T00:42:10;126.57;;;49.55;;
56321;SDS011;42227;6.376;-10.782;2024-03-02T00:44:40;98.75;;;41.22;;
56321;SDS011;42227;6.376;-10.782;2024-03-02T00:47:08;89.60;;;37.63;;
56321;SDS011;42227;6.376;-10.782;2024-03-02T00:49:36;109.07;;;42.67;;
56321;SDS011;42227;6.376;-10.782;2024-03-02T00:52:07;93.65;;;41.33;;
56321;SDS011;42227;6.376;-10.782;2024-03-02T00:54:35;94.00;;;38.20;;
56321;SDS011;42227;6.376;-10.782;2024-03-02T00:57:04;89.15;;;38.80;;
56321;SDS011;42227;6.376;-10.782;2024-03-02T00:59:32;120.18;;;46.47;;
56321;SDS011;42227;6.376;-10.782;2024-03-02T01:02:01;96.80;;;44.58;;
56321;SDS011;42227;6.376;-10.782;2024-03-02T01:04:29;142.95;;;64.88;;
56321;SDS011;42227;6.376;-10.782;2024-03-02T01:06:57;151.05;;;68.85;;
56321;SDS011;42227;6.376;-10.782;2024-03-02T01:09:26;173.90;;;87.68;;
56321;SDS011;42227;6.376;-10.782;2024-03-02T01:11:55;148.40;;;85.63;;
56321;SDS011;42227;6.376;-10.782;2024-03-02T01:14:23;143.13;;;60.72;;
56321;SDS011;42227;6.376;-10.782;2024-03-02T01:16:51;128.75;;;60.08;;
56321;SDS011;42227;6.376;-10.782;2024-03-02T01:19:20;136.45;;;66.53;;
56321;SDS011;42227;6.376;-10.782;2024-03-02T01:21:49;91.55;;;37.45;;
56321;SDS011;42227;6.376;-10.782;2024-03-02T01:24:17;100.00;;;33.22;;
56321;SDS011;42227;6.376;-10.782;2024-03-02T01:26:46;80.22;;;31.52;;
56321;SDS011;42227;6.376;-10.782;2024-03-02T01:29:14;102.97;;;33.55;;
56321;SDS011;42227;6.376;-10.782;2024-03-02T01:31:43;79.57;;;28.15;;
56321;SDS011;42227;6.376;-10.782;2024-03-02T01:34:11;85.72;;;30.75;;
56321;SDS011;42227;6.376;-10.782;2024-03-02T01:36:40;73.68;;;28.63;;
56321;SDS011;42227;6.376;-10.782;2024-03-02T01:39:08;84.75;;;30.52;;
56321;SDS011;42227;6.376;-10.782;2024-03-02T01:41:37;89.32;;;28.80;;
56321;SDS011;42227;6.376;-10.782;2024-03-02T01:44:05;87.30;;;31.27;;
56321;SDS011;42227;6.376;-10.782;2024-03-02T01:46:33;88.45;;;40.45;;
56321;SDS011;42227;6.376;-10.782;2024-03-02T01:49:02;115.82;;;47.28;;
56321;SDS011;42227;6.376;-10.782;2024-03-02T01:51:31;122.78;;;42.35;;
56321;SDS011;42227;6.376;-10.782;2024-03-02T01:53:59;97.57;;;38.40;;
56321;SDS011;42227;6.376;-10.782;2024-03-02T01:56:28;97.05;;;37.97;;
56321;SDS011;42227;6.376;-10.782;2024-03-02T01:58:56;85.13;;;38.05;;
56321;SDS011;42227;6.376;-10.782;2024-03-02T02:01:24;98.53;;;37.83;;
56321;SDS011;42227;6.376;-10.782;2024-03-02T02:03:53;92.28;;;33.72;;
56321;SDS011;42227;6.376;-10.782;2024-03-02T02:06:21;84.28;;;35.70;;
56321;SDS011;42227;6.376;-10.782;2024-03-02T02:08:50;79.72;;;33.88;;
56321;SDS011;42227;6.376;-10.782;2024-03-02T02:11:19;94.32;;;35.20;;
56321;SDS011;42227;6.376;-10.782;2024-03-02T02:13:47;94.88;;;34.70;;
56321;SDS011;42227;6.376;-10.782;2024-03-02T02:16:15;81.28;;;39.00;;
56321;SDS011;42227;6.376;-10.782;2024-03-02T02:18:44;100.50;;;39.97;;
56321;SDS011;42227;6.376;-10.782;2024-03-02T02:21:12;102.90;;;42.75;;
56321;SDS011;42227;6.376;-10.782;2024-03-02T02:23:41;102.93;;;44.65;;
56321;SDS011;42227;6.376;-10.782;2024-03-02T02:26:09;116.63;;;48.45;;
56321;SDS011;42227;6.376;-10.782;2024-03-02T02:28:38;114.35;;;50.53;;
56321;SDS011;42227;6.376;-10.782;2024-03-02T02:31:06;101.97;;;45.78;;
56321;SDS011;42227;6.376;-10.782;2024-03-02T02:33:38;96.50;;;44.47;;
56321;SDS011;42227;6.376;-10.782;2024-03-02T02:36:07;91.80;;;40.33;;
56321;SDS011;42227;6.376;-10.782;2024-03-02T02:38:38;97.78;;;40.60;;
56321;SDS011;42227;6.376;-10.782;2024-03-02T02:41:09;105.40;;;40.63;;
56321;SDS011;42227;6.376;-10.782;2024-03-02T02:43:37;101.28;;;42.55;;
56321;SDS011;42227;6.376;-10.782;2024-03-02T02:46:06;99.40;;;38.35;;
56321;SDS011;42227;6.376;-10.782;2024-03-02T02:48:34;100.00;;;39.53;;
56321;SDS011;42227;6.376;-10.782;2024-03-02T02:51:03;94.28;;;39.33;;
56321;SDS011;42227;6.376;-10.782;2024-03-02T02:53:31;88.90;;;35.58;;
56321;SDS011;42227;6.376;-10.782;2024-03-02T02:56:00;84.55;;;38.25;;
56321;SDS011;42227;6.376;-10.782;2024-03-02T02:58:28;71.25;;;34.15;;
56321;SDS011;42227;6.376;-10.782;2024-03-02T03:00:59;77.63;;;34.25;;
56321;SDS011;42227;6.376;-10.782;2024-03-02T03:03:28;84.78;;;32.45;;
56321;SDS011;42227;6.376;-10.782;2024-03-02T03:05:56;82.57;;;38.45;;
56321;SDS011;42227;6.376;-10.782;2024-03-02T03:08:24;90.72;;;41.45;;
56321;SDS011;42227;6.376;-10.782;2024-03-02T03:10:53;97.55;;;36.80;;
56321;SDS011;42227;6.376;-10.782;2024-03-02T03:13:21;83.22;;;37.25;;
56321;SDS011;42227;6.376;-10.782;2024-03-02T03:15:49;64.72;;;32.03;;
56321;SDS011;42227;6.376;-10.782;2024-03-02T03:18:19;87.93;;;38.28;;
56321;SDS011;42227;6.376;-10.782;2024-03-02T03:20:48;96.85;;;37.70;;
56321;SDS011;42227;6.376;-10.782;2024-03-02T03:23:16;90.43;;;36.22;;
56321;SDS011;42227;6.376;-10.782;2024-03-02T03:25:44;89.28;;;35.55;;
56321;SDS011;42227;6.376;-10.782;2024-03-02T03:28:13;74.65;;;34.17;;
56321;SDS011;42227;6.376;-10.782;2024-03-02T03:30:41;103.90;;;42.80;;
56321;SDS011;42227;6.376;-10.782;2024-03-02T03:33:10;93.20;;;37.67;;
56321;SDS011;42227;6.376;-10.782;2024-03-02T03:35:38;102.00;;;36.50;;
56321;SDS011;42227;6.376;-10.782;2024-03-02T03:38:06;105.03;;;35.28;;
56321;SDS011;42227;6.376;-10.782;2024-03-02T03:40:35;63.28;;;31.75;;
56321;SDS011;42227;6.376;-10.782;2024-03-02T03:43:03;104.72;;;34.95;;
56321;SDS011;42227;6.376;-10.782;2024-03-02T03:45:32;101.43;;;35.35;;
56321;SDS011;42227;6.376;-10.782;2024-03-02T03:48:00;73.72;;;31.92;;
56321;SDS011;42227;6.376;-10.782;2024-03-02T03:50:29;72.38;;;30.00;;
56321;SDS011;42227;6.376;-10.782;2024-03-02T03:52:58;59.28;;;30.05;;
56321;SDS011;42227;6.376;-10.782;2024-03-02T03:55:26;79.35;;;29.27;;
56321;SDS011;42227;6.376;-10.782;2024-03-02T03:57:54;95.78;;;36.15;;
56321;SDS011;42227;6.376;-10.782;2024-03-02T04:00:23;88.28;;;35.45;;
56321;SDS011;42227;6.376;-10.782;2024-03-02T04:02:52;77.32;;;31.63;;
56321;SDS011;42227;6.376;-10.782;2024-03-02T04:05:20;82.28;;;29.92;;
56321;SDS011;42227;6.376;-10.782;2024-03-02T04:07:48;72.35;;;29.77;;
56321;SDS011;42227;6.376;-10.782;2024-03-02T04:10:17;78.38;;;29.65;;
56321;SDS011;42227;6.376;-10.782;2024-03-02T04:12:45;80.07;;;30.27;;
56321;SDS011;42227;6.376;-10.782;2024-03-02T04:15:13;75.50;;;28.30;;
56321;SDS011;42227;6.376;-10.782;2024-03-02T04:17:42;81.93;;;29.70;;
56321;SDS011;42227;6.376;-10.782;2024-03-02T04:20:11;78.40;;;28.92;;
56321;SDS011;42227;6.376;-10.782;2024-03-02T04:22:39;78.97;;;31.58;;
56321;SDS011;42227;6.376;-10.782;2024-03-02T04:25:07;84.63;;;30.50;;
56321;SDS011;42227;6.376;-10.782;2024-03-02T04:27:36;84.05;;;32.35;;
56321;SDS011;42227;6.376;-10.782;2024-03-02T04:30:05;78.22;;;34.38;;
56321;SDS011;42227;6.376;-10.782;2024-03-02T04:32:33;69.75;;;29.27;;
56321;SDS011;42227;6.376;-10.782;2024-03-02T04:35:02;77.18;;;27.92;;
56321;SDS011;42227;6.376;-10.782;2024-03-02T04:37:33;84.07;;;30.38;;
56321;SDS011;42227;6.376;-10.782;2024-03-02T04:40:02;91.07;;;31.80;;
56321;SDS011;42227;6.376;-10.782;2024-03-02T04:42:30;69.28;;;27.42;;
56321;SDS011;42227;6.376;-10.782;2024-03-02T04:44:59;71.57;;;28.88;;
56321;SDS011;42227;6.376;-10.782;2024-03-02T04:47:27;74.30;;;29.52;;
56321;SDS011;42227;6.376;-10.782;2024-03-02T04:49:56;86.63;;;30.83;;
56321;SDS011;42227;6.376;-10.782;2024-03-02T04:52:24;86.65;;;31.02;;
56321;SDS011;42227;6.376;-10.782;2024-03-02T04:54:53;67.28;;;29.13;;
56321;SDS011;42227;6.376;-10.782;2024-03-02T04:57:21;89.00;;;30.10;;
56321;SDS011;42227;6.376;-10.782;2024-03-02T04:59:50;89.45;;;29.95;;
56321;SDS011;42227;6.376;-10.782;2024-03-02T05:02:18;100.05;;;30.25;;
56321;SDS011;42227;6.376;-10.782;2024-03-02T05:04:46;81.25;;;28.92;;
56321;SDS011;42227;6.376;-10.782;2024-03-02T05:07:15;61.35;;;28.80;;
56321;SDS011;42227;6.376;-10.782;2024-03-02T05:09:43;84.10;;;30.25;;
56321;SDS011;42227;6.376;-10.782;2024-03-02T05:12:12;80.28;;;30.33;;
56321;SDS011;42227;6.376;-10.782;2024-03-02T05:14:40;69.22;;;28.75;;
56321;SDS011;42227;6.376;-10.782;2024-03-02T05:17:08;77.05;;;29.00;;
56321;SDS011;42227;6.376;-10.782;2024-03-02T05:19:37;93.47;;;29.88;;
56321;SDS011;42227;6.376;-10.782;2024-03-02T05:22:05;65.05;;;27.35;;
56321;SDS011;42227;6.376;-10.782;2024-03-02T05:24:33;70.88;;;29.80;;
56321;SDS011;42227;6.376;-10.782;2024-03-02T05:27:02;71.40;;;26.35;;
56321;SDS011;42227;6.376;-10.782;2024-03-02T05:29:30;64.75;;;25.98;;
56321;SDS011;42227;6.376;-10.782;2024-03-02T05:31:58;69.25;;;25.80;;
56321;SDS011;42227;6.376;-10.782;2024-03-02T05:34:27;97.47;;;26.73;;
56321;SDS011;42227;6.376;-10.782;2024-03-02T05:36:56;82.40;;;28.77;;
56321;SDS011;42227;6.376;-10.782;2024-03-02T05:39:24;66.82;;;25.38;;
56321;SDS011;42227;6.376;-10.782;2024-03-02T05:41:53;79.50;;;30.40;;
56321;SDS011;42227;6.376;-10.782;2024-03-02T05:44:21;70.75;;;29.13;;
56321;SDS011;42227;6.376;-10.782;2024-03-02T05:46:49;88.55;;;28.98;;
56321;SDS011;42227;6.376;-10.782;2024-03-02T05:49:18;73.88;;;27.48;;
56321;SDS011;42227;6.376;-10.782;2024-03-02T05:51:46;68.22;;;30.80;;
56321;SDS011;42227;6.376;-10.782;2024-03-02T05:54:15;69.80;;;28.10;;
56321;SDS011;42227;6.376;-10.782;2024-03-02T05:56:43;70.80;;;28.27;;
56321;SDS011;42227;6.376;-10.782;2024-03-02T05:59:11;69.82;;;27.70;;
56321;SDS011;42227;6.376;-10.782;2024-03-02T06:01:40;73.80;;;27.90;;
56321;SDS011;42227;6.376;-10.782;2024-03-02T06:04:16;74.65;;;23.77;;
56321;SDS011;42227;6.376;-10.782;2024-03-02T06:06:45;54.80;;;22.52;;
56321;SDS011;42227;6.376;-10.782;2024-03-02T06:09:13;80.70;;;26.38;;
56321;SDS011;42227;6.376;-10.782;2024-03-02T06:11:42;72.38;;;27.08;;
56321;SDS011;42227;6.376;-10.782;2024-03-02T06:14:10;69.03;;;25.38;;
56321;SDS011;42227;6.376;-10.782;2024-03-02T06:16:38;64.50;;;24.35;;
56321;SDS011;42227;6.376;-10.782;2024-03-02T06:19:07;50.10;;;25.98;;
56321;SDS011;42227;6.376;-10.782;2024-03-02T06:21:35;77.63;;;26.77;;
56321;SDS011;42227;6.376;-10.782;2024-03-02T06:24:03;57.03;;;22.02;;
56321;SDS011;42227;6.376;-10.782;2024-03-02T06:26:32;64.20;;;25.77;;
56321;SDS011;42227;6.376;-10.782;2024-03-02T06:29:00;68.30;;;27.83;;
56321;SDS011;42227;6.376;-10.782;2024-03-02T06:31:29;73.28;;;28.15;;
56321;SDS011;42227;6.376;-10.782;2024-03-02T06:33:58;61.67;;;27.67;;
56321;SDS011;42227;6.376;-10.782;2024-03-02T06:36:26;53.70;;;25.52;;
56321;SDS011;42227;6.376;-10.782;2024-03-02T06:38:54;75.78;;;26.98;;
56321;SDS011;42227;6.376;-10.782;2024-03-02T06:41:23;62.38;;;24.75;;
56321;SDS011;42227;6.376;-10.782;2024-03-02T06:43:51;68.35;;;25.60;;
56321;SDS011;42227;6.376;-10.782;2024-03-02T06:46:20;63.28;;;23.67;;
56321;SDS011;42227;6.376;-10.782;2024-03-02T06:48:48;62.75;;;25.17;;
56321;SDS011;42227;6.376;-10.782;2024-03-02T06:51:16;63.17;;;25.27;;
56321;SDS011;42227;6.376;-10.782;2024-03-02T06:53:45;52.45;;;21.38;;
56321;SDS011;42227;6.376;-10.782;2024-03-02T06:56:13;87.00;;;25.70;;
56321;SDS011;42227;6.376;-10.782;2024-03-02T06:58:41;66.15;;;23.83;;
56321;SDS011;42227;6.376;-10.782;2024-03-02T07:01:10;67.53;;;21.90;;
56321;SDS011;42227;6.376;-10.782;2024-03-02T07:03:38;62.83;;;21.60;;
56321;SDS011;42227;6.376;-10.782;2024-03-02T07:06:07;49.67;;;22.90;;
56321;SDS011;42227;6.376;-10.782;2024-03-02T07:08:35;68.35;;;24.35;;
56321;SDS011;42227;6.376;-10.782;2024-03-02T07:11:03;77.05;;;33.10;;
56321;SDS011;42227;6.376;-10.782;2024-03-02T07:13:32;80.47;;;45.72;;
56321;SDS011;42227;6.376;-10.782;2024-03-02T07:16:00;62.08;;;30.98;;
56321;SDS011;42227;6.376;-10.782;2024-03-02T07:18:29;67.03;;;29.30;;
56321;SDS011;42227;6.376;-10.782;2024-03-02T07:20:58;64.80;;;24.58;;
56321;SDS011;42227;6.376;-10.782;2024-03-02T07:23:27;62.60;;;23.55;;
56321;SDS011;42227;6.376;-10.782;2024-03-02T07:25:56;72.10;;;23.83;;
56321;SDS011;42227;6.376;-10.782;2024-03-02T07:28:30;58.35;;;29.60;;
56321;SDS011;42227;6.376;-10.782;2024-03-02T07:31:00;61.78;;;25.33;;
56321;SDS011;42227;6.376;-10.782;2024-03-02T07:33:33;62.78;;;20.73;;
56321;SDS011;42227;6.376;-10.782;2024-03-02T07:36:02;71.43;;;23.45;;
56321;SDS011;42227;6.376;-10.782;2024-03-02T07:38:31;60.67;;;23.83;;
56321;SDS011;42227;6.376;-10.782;2024-03-02T07:41:00;66.25;;;24.13;;
56321;SDS011;42227;6.376;-10.782;2024-03-02T07:43:28;70.15;;;25.77;;
56321;SDS011;42227;6.376;-10.782;2024-03-02T07:45:56;67.00;;;24.88;;
56321;SDS011;42227;6.376;-10.782;2024-03-02T07:48:25;70.50;;;24.92;;
56321;SDS011;42227;6.376;-10.782;2024-03-02T07:50:54;84.53;;;32.97;;
56321;SDS011;42227;6.376;-10.782;2024-03-02T07:53:22;81.95;;;33.85;;
56321;SDS011;42227;6.376;-10.782;2024-03-02T07:55:50;72.32;;;28.80;;
56321;SDS011;42227;6.376;-10.782;2024-03-02T07:58:19;76.65;;;30.35;;
56321;SDS011;42227;6.376;-10.782;2024-03-02T08:00:47;79.32;;;28.25;;
56321;SDS011;42227;6.376;-10.782;2024-03-02T08:03:20;76.00;;;27.15;;
56321;SDS011;42227;6.376;-10.782;2024-03-02T08:05:48;84.22;;;28.75;;
56321;SDS011;42227;6.376;-10.782;2024-03-02T08:08:16;84.55;;;30.33;;
56321;SDS011;42227;6.376;-10.782;2024-03-02T08:10:45;80.25;;;31.20;;
56321;SDS011;42227;6.376;-10.782;2024-03-02T08:13:13;89.90;;;32.17;;
56321;SDS011;42227;6.376;-10.782;2024-03-02T08:15:42;87.70;;;37.45;;
56321;SDS011;42227;6.376;-10.782;2024-03-02T08:18:10;80.65;;;33.65;;
56321;SDS011;42227;6.376;-10.782;2024-03-02T08:20:38;81.50;;;33.97;;
56321;SDS011;42227;6.376;-10.782;2024-03-02T08:23:08;75.13;;;30.73;;
56321;SDS011;42227;6.376;-10.782;2024-03-02T08:25:36;63.17;;;27.98;;
56321;SDS011;42227;6.376;-10.782;2024-03-02T08:28:05;56.00;;;26.35;;
56321;SDS011;42227;6.376;-10.782;2024-03-02T08:30:33;58.92;;;27.50;;
56321;SDS011;42227;6.376;-10.782;2024-03-02T08:33:02;59.60;;;26.40;;
56321;SDS011;42227;6.376;-10.782;2024-03-02T08:35:31;61.40;;;27.73;;
56321;SDS011;42227;6.376;-10.782;2024-03-02T08:37:59;53.97;;;27.42;;
56321;SDS011;42227;6.376;-10.782;2024-03-02T08:40:28;57.97;;;25.58;;
56321;SDS011;42227;6.376;-10.782;2024-03-02T08:42:57;58.55;;;22.40;;
56321;SDS011;42227;6.376;-10.782;2024-03-02T08:45:25;75.20;;;28.35;;
56321;SDS011;42227;6.376;-10.782;2024-03-02T08:47:54;54.42;;;25.95;;
56321;SDS011;42227;6.376;-10.782;2024-03-02T08:50:22;67.60;;;29.05;;
56321;SDS011;42227;6.376;-10.782;2024-03-02T08:52:50;47.45;;;24.05;;
56321;SDS011;42227;6.376;-10.782;2024-03-02T08:55:19;74.97;;;25.65;;
56321;SDS011;42227;6.376;-10.782;2024-03-02T08:57:47;70.20;;;24.23;;
56321;SDS011;42227;6.376;-10.782;2024-03-02T09:00:16;70.20;;;27.58;;
56321;SDS011;42227;6.376;-10.782;2024-03-02T09:02:45;67.03;;;26.67;;
56321;SDS011;42227;6.376;-10.782;2024-03-02T09:05:13;63.47;;;27.10;;
56321;SDS011;42227;6.376;-10.782;2024-03-02T09:07:42;68.40;;;26.10;;
56321;SDS011;42227;6.376;-10.782;2024-03-02T09:10:10;65.13;;;27.65;;
56321;SDS011;42227;6.376;-10.782;2024-03-02T09:12:39;80.82;;;25.63;;
56321;SDS011;42227;6.376;-10.782;2024-03-02T09:18:19;69.85;;;27.65;;
56321;SDS011;42227;6.376;-10.782;2024-03-02T09:20:48;58.85;;;24.35;;
56321;SDS011;42227;6.376;-10.782;2024-03-02T09:23:16;64.70;;;26.25;;
56321;SDS011;42227;6.376;-10.782;2024-03-02T09:25:45;62.55;;;30.10;;
56321;SDS011;42227;6.376;-10.782;2024-03-02T09:28:15;65.40;;;24.08;;
56321;SDS011;42227;6.376;-10.782;2024-03-02T09:30:43;88.00;;;29.60;;
56321;SDS011;42227;6.376;-10.782;2024-03-02T09:33:12;77.72;;;33.72;;
56321;SDS011;42227;6.376;-10.782;2024-03-02T09:35:43;73.50;;;37.28;;
56321;SDS011;42227;6.376;-10.782;2024-03-02T09:38:11;97.65;;;44.67;;
56321;SDS011;42227;6.376;-10.782;2024-03-02T09:40:41;81.55;;;42.72;;
56321;SDS011;42227;6.376;-10.782;2024-03-02T09:43:10;88.53;;;40.15;;
56321;SDS011;42227;6.376;-10.782;2024-03-02T09:45:38;84.15;;;33.13;;
56321;SDS011;42227;6.376;-10.782;2024-03-02T09:48:07;103.15;;;44.33;;
56321;SDS011;42227;6.376;-10.782;2024-03-02T09:50:36;116.75;;;36.47;;
56321;SDS011;42227;6.376;-10.782;2024-03-02T09:53:04;86.47;;;33.50;;
56321;SDS011;42227;6.376;-10.782;2024-03-02T09:55:34;72.15;;;29.98;;
56321;SDS011;42227;6.376;-10.782;2024-03-02T09:58:03;73.22;;;29.30;;
56321;SDS011;42227;6.376;-10.782;2024-03-02T10:00:31;71.40;;;29.55;;
56321;SDS011;42227;6.376;-10.782;2024-03-02T10:02:59;74.20;;;29.40;;
56321;SDS011;42227;6.376;-10.782;2024-03-02T10:05:28;70.93;;;27.75;;
56321;SDS011;42227;6.376;-10.782;2024-03-02T10:08:00;61.78;;;24.67;;
56321;SDS011;42227;6.376;-10.782;2024-03-02T10:10:36;82.60;;;33.75;;
56321;SDS011;42227;6.376;-10.782;2024-03-02T10:13:09;90.75;;;43.25;;
56321;SDS011;42227;6.376;-10.782;2024-03-02T10:15:39;68.32;;;31.75;;
56321;SDS011;42227;6.376;-10.782;2024-03-02T10:18:11;88.28;;;36.08;;
56321;SDS011;42227;6.376;-10.782;2024-03-02T10:20:40;91.75;;;33.47;;
56321;SDS011;42227;6.376;-10.782;2024-03-02T10:23:13;73.43;;;31.13;;
56321;SDS011;42227;6.376;-10.782;2024-03-02T10:25:45;78.93;;;27.05;;
56321;SDS011;42227;6.376;-10.782;2024-03-02T10:28:24;73.28;;;24.48;;
56321;SDS011;42227;6.376;-10.782;2024-03-02T10:30:52;79.05;;;26.10;;
56321;SDS011;42227;6.376;-10.782;2024-03-02T10:33:21;64.10;;;26.40;;
56321;SDS011;42227;6.376;-10.782;2024-03-02T10:35:49;65.82;;;27.77;;
56321;SDS011;42227;6.376;-10.782;2024-03-02T10:38:18;89.85;;;25.85;;
56321;SDS011;42227;6.376;-10.782;2024-03-02T10:40:47;78.13;;;30.27;;
56321;SDS011;42227;6.376;-10.782;2024-03-02T10:43:15;64.25;;;27.42;;
56321;SDS011;42227;6.376;-10.782;2024-03-02T10:45:45;85.03;;;30.23;;
56321;SDS011;42227;6.376;-10.782;2024-03-02T10:48:16;62.05;;;24.88;;
56321;SDS011;42227;6.376;-10.782;2024-03-02T10:50:45;85.45;;;30.10;;
56321;SDS011;42227;6.376;-10.782;2024-03-02T10:53:13;106.97;;;33.47;;
56321;SDS011;42227;6.376;-10.782;2024-03-02T10:55:41;82.85;;;26.95;;
56321;SDS011;42227;6.376;-10.782;2024-03-02T10:58:11;91.68;;;29.05;;
56321;SDS011;42227;6.376;-10.782;2024-03-02T11:00:41;78.43;;;26.25;;
56321;SDS011;42227;6.376;-10.782;2024-03-02T11:03:11;72.38;;;28.38;;
56321;SDS011;42227;6.376;-10.782;2024-03-02T11:05:42;81.18;;;27.55;;
56321;SDS011;42227;6.376;-10.782;2024-03-02T11:08:13;72.28;;;29.33;;
56321;SDS011;42227;6.376;-10.782;2024-03-02T11:10:46;83.93;;;25.50;;
56321;SDS011;42227;6.376;-10.782;2024-03-02T11:13:16;86.57;;;27.25;;
56321;SDS011;42227;6.376;-10.782;2024-03-02T11:15:54;91.20;;;28.10;;
56321;SDS011;42227;6.376;-10.782;2024-03-02T11:18:27;72.80;;;26.27;;
56321;SDS011;42227;6.376;-10.782;2024-03-02T11:20:56;96.70;;;28.88;;
56321;SDS011;42227;6.376;-10.782;2024-03-02T11:23:32;70.53;;;24.25;;
56321;SDS011;42227;6.376;-10.782;2024-03-02T11:26:20;91.45;;;30.17;;
56321;SDS011;42227;6.376;-10.782;2024-03-02T11:28:49;86.70;;;28.45;;
56321;SDS011;42227;6.376;-10.782;2024-03-02T11:31:17;86.82;;;30.17;;
56321;SDS011;42227;6.376;-10.782;2024-03-02T11:33:46;86.65;;;28.17;;
56321;SDS011;42227;6.376;-10.782;2024-03-02T11:36:14;90.70;;;31.45;;
56321;SDS011;42227;6.376;-10.782;2024-03-02T11:38:44;99.78;;;26.73;;
56321;SDS011;42227;6.376;-10.782;2024-03-02T11:41:12;107.82;;;31.83;;
56321;SDS011;42227;6.376;-10.782;2024-03-02T11:43:41;79.32;;;28.08;;
56321;SDS011;42227;6.376;-10.782;2024-03-02T11:46:10;90.35;;;29.50;;
56321;SDS011;42227;6.376;-10.782;2024-03-02T11:48:39;88.72;;;29.95;;
56321;SDS011;42227;6.376;-10.782;2024-03-02T11:51:07;88.30;;;30.20;;
56321;SDS011;42227;6.376;-10.782;2024-03-02T11:53:36;112.43;;;33.10;;
56321;SDS011;42227;6.376;-10.782;2024-03-02T11:56:07;92.50;;;29.52;;
56321;SDS011;42227;6.376;-10.782;2024-03-02T11:58:37;105.22;;;32.45;;
56321;SDS011;42227;6.376;-10.782;2024-03-02T12:01:07;78.40;;;32.42;;
56321;SDS011;42227;6.376;-10.782;2024-03-02T12:03:35;96.30;;;33.08;;
56321;SDS011;42227;6.376;-10.782;2024-03-02T12:06:04;98.25;;;34.05;;
56321;SDS011;42227;6.376;-10.782;2024-03-02T12:08:33;99.22;;;28.88;;
56321;SDS011;42227;6.376;-10.782;2024-03-02T12:11:03;103.65;;;33.30;;
56321;SDS011;42227;6.376;-10.782;2024-03-02T12:13:32;73.80;;;27.35;;
56321;SDS011;42227;6.376;-10.782;2024-03-02T12:16:00;75.18;;;30.00;;
56321;SDS011;42227;6.376;-10.782;2024-03-02T12:18:29;113.47;;;32.20;;
56321;SDS011;42227;6.376;-10.782;2024-03-02T12:20:57;93.72;;;31.98;;
56321;SDS011;42227;6.376;-10.782;2024-03-02T12:23:26;110.57;;;31.42;;
56321;SDS011;42227;6.376;-10.782;2024-03-02T12:25:54;94.75;;;30.55;;
56321;SDS011;42227;6.376;-10.782;2024-03-02T12:28:23;81.22;;;30.33;;
56321;SDS011;42227;6.376;-10.782;2024-03-02T12:30:52;76.25;;;29.55;;
56321;SDS011;42227;6.376;-10.782;2024-03-02T12:33:20;95.53;;;29.55;;
56321;SDS011;42227;6.376;-10.782;2024-03-02T12:35:49;82.97;;;30.02;;
56321;SDS011;42227;6.376;-10.782;2024-03-02T12:38:17;95.53;;;32.90;;
56321;SDS011;42227;6.376;-10.782;2024-03-02T12:40:49;77.47;;;28.67;;
56321;SDS011;42227;6.376;-10.782;2024-03-02T12:43:19;94.28;;;32.72;;
56321;SDS011;42227;6.376;-10.782;2024-03-02T12:45:47;111.55;;;36.25;;
56321;SDS011;42227;6.376;-10.782;2024-03-02T12:48:16;97.45;;;35.47;;
56321;SDS011;42227;6.376;-10.782;2024-03-02T12:50:44;99.68;;;33.42;;
56321;SDS011;42227;6.376;-10.782;2024-03-02T12:53:15;130.38;;;39.13;;
56321;SDS011;42227;6.376;-10.782;2024-03-02T12:58:18;108.38;;;36.63;;
56321;SDS011;42227;6.376;-10.782;2024-03-02T13:00:48;124.70;;;39.78;;
56321;SDS011;42227;6.376;-10.782;2024-03-02T13:03:17;106.07;;;37.55;;
56321;SDS011;42227;6.376;-10.782;2024-03-02T13:05:49;125.03;;;42.13;;
56321;SDS011;42227;6.376;-10.782;2024-03-02T13:08:18;131.93;;;43.88;;
56321;SDS011;42227;6.376;-10.782;2024-03-02T13:10:46;111.05;;;39.75;;
56321;SDS011;42227;6.376;-10.782;2024-03-02T13:13:14;106.07;;;35.30;;
56321;SDS011;42227;6.376;-10.782;2024-03-02T13:15:43;115.72;;;38.30;;
56321;SDS011;42227;6.376;-10.782;2024-03-02T13:18:12;129.80;;;46.50;;
56321;SDS011;42227;6.376;-10.782;2024-03-02T13:20:40;107.00;;;37.75;;
56321;SDS011;42227;6.376;-10.782;2024-03-02T13:23:09;104.10;;;38.25;;
56321;SDS011;42227;6.376;-10.782;2024-03-02T13:25:37;118.88;;;33.30;;
56321;SDS011;42227;6.376;-10.782;2024-03-02T13:28:06;106.13;;;35.55;;
56321;SDS011;42227;6.376;-10.782;2024-03-02T13:30:35;95.43;;;31.13;;
56321;SDS011;42227;6.376;-10.782;2024-03-02T13:33:03;109.32;;;35.58;;
56321;SDS011;42227;6.376;-10.782;2024-03-02T13:35:31;74.43;;;28.80;;
56321;SDS011;42227;6.376;-10.782;2024-03-02T13:38:00;99.72;;;33.25;;
56321;SDS011;42227;6.376;-10.782;2024-03-02T13:40:28;89.70;;;33.72;;
56321;SDS011;42227;6.376;-10.782;2024-03-02T13:42:57;113.32;;;34.78;;
56321;SDS011;42227;6.376;-10.782;2024-03-02T13:45:25;105.80;;;35.60;;
56321;SDS011;42227;6.376;-10.782;2024-03-02T13:47:54;112.25;;;37.45;;
56321;SDS011;42227;6.376;-10.782;2024-03-02T13:50:22;98.55;;;35.35;;
56321;SDS011;42227;6.376;-10.782;2024-03-02T13:52:50;110.53;;;33.00;;
56321;SDS011;42227;6.376;-10.782;2024-03-02T13:55:19;115.15;;;35.63;;
56321;SDS011;42227;6.376;-10.782;2024-03-02T13:57:47;119.53;;;36.20;;
56321;SDS011;42227;6.376;-10.782;2024-03-02T14:00:16;100.30;;;33.03;;
56321;SDS011;42227;6.376;-10.782;2024-03-02T14:02:45;97.07;;;29.92;;
56321;SDS011;42227;6.376;-10.782;2024-03-02T14:05:13;106.15;;;33.13;;
56321;SDS011;42227;6.376;-10.782;2024-03-02T14:07:42;93.90;;;34.72;;
56321;SDS011;42227;6.376;-10.782;2024-03-02T14:10:10;105.68;;;36.95;;
56321;SDS011;42227;6.376;-10.782;2024-03-02T14:12:40;114.90;;;37.10;;
56321;SDS011;42227;6.376;-10.782;2024-03-02T14:15:09;112.90;;;37.22;;
56321;SDS011;42227;6.376;-10.782;2024-03-02T14:17:37;103.85;;;37.35;;
56321;SDS011;42227;6.376;-10.782;2024-03-02T14:20:06;116.35;;;40.22;;
56321;SDS011;42227;6.376;-10.782;2024-03-02T14:22:35;135.02;;;40.05;;